sensor_id;sensor_type;location;lat;lon;timestamp;temperature;humidity
7648;DHT22;3866;48.020;11.720;2024-03-23T00:54:14;9.60;99.90
7648;DHT22;3866;48.020;11.720;2024-03-23T00:56:41;9.60;99.90
7648;DHT22;3866;48.020;11.720;2024-03-23T00:59:07;9.60;99.90
7648;DHT22;3866;48.020;11.720;2024-03-23T01:01:34;9.60;99.90
7648;DHT22;3866;48.020;11.720;2024-03-23T01:04:00;9.60;99.90
7648;DHT22;3866;48.020;11.720;2024-03-23T01:06:26;9.60;99.90
7648;DHT22;3866;48.020;11.720;2024-03-23T01:08:52;9.60;99.90
7648;DHT22;3866;48.020;11.720;2024-03-23T01:11:25;9.60;99.90
7648;DHT22;3866;48.020;11.720;2024-03-23T01:13:51;9.70;99.90
7648;DHT22;3866;48.020;11.720;2024-03-23T01:16:20;9.60;99.90
7648;DHT22;3866;48.020;11.720;2024-03-23T01:18:46;9.60;99.90
7648;DHT22;3866;48.020;11.720;2024-03-23T01:21:13;9.60;99.90
7648;DHT22;3866;48.020;11.720;2024-03-23T01:23:39;9.50;99.90
7648;DHT22;3866;48.020;11.720;2024-03-23T01:26:06;9.50;99.90
7648;DHT22;3866;48.020;11.720;2024-03-23T01:28:33;9.40;99.90
7648;DHT22;3866;48.020;11.720;2024-03-23T01:31:00;9.40;99.90
7648;DHT22;3866;48.020;11.720;2024-03-23T01:33:26;9.30;99.90
7648;DHT22;3866;48.020;11.720;2024-03-23T01:35:53;9.30;99.90
7648;DHT22;3866;48.020;11.720;2024-03-23T01:38:19;9.30;99.90
7648;DHT22;3866;48.020;11.720;2024-03-23T01:40:45;9.20;99.90
7648;DHT22;3866;48.020;11.720;2024-03-23T01:43:12;9.10;99.90
7648;DHT22;3866;48.020;11.720;2024-03-23T01:45:40;9.10;99.90
7648;DHT22;3866;48.020;11.720;2024-03-23T01:48:06;9.00;99.90
7648;DHT22;3866;48.020;11.720;2024-03-23T01:50:34;8.90;99.90
7648;DHT22;3866;48.020;11.720;2024-03-23T01:53:02;8.70;99.90
7648;DHT22;3866;48.020;11.720;2024-03-23T01:55:31;8.60;99.90
7648;DHT22;3866;48.020;11.720;2024-03-23T01:57:57;8.40;99.90
7648;DHT22;3866;48.020;11.720;2024-03-23T02:00:24;8.50;99.90
7648;DHT22;3866;48.020;11.720;2024-03-23T02:02:52;8.50;99.90
7648;DHT22;3866;48.020;11.720;2024-03-23T02:05:19;8.60;99.90
7648;DHT22;3866;48.020;11.720;2024-03-23T02:07:45;8.60;99.90
7648;DHT22;3866;48.020;11.720;2024-03-23T02:10:12;8.60;99.90
7648;DHT22;3866;48.020;11.720;2024-03-23T02:12:39;8.70;99.90
7648;DHT22;3866;48.020;11.720;2024-03-23T02:15:06;8.80;99.90
7648;DHT22;3866;48.020;11.720;2024-03-23T02:17:34;8.70;99.90
7648;DHT22;3866;48.020;11.720;2024-03-23T02:20:02;8.70;99.90
7648;DHT22;3866;48.020;11.720;2024-03-23T02:22:36;8.70;99.90
7648;DHT22;3866;48.020;11.720;2024-03-23T02:25:05;8.80;99.90
7648;DHT22;3866;48.020;11.720;2024-03-23T02:27:31;8.80;99.90
7648;DHT22;3866;48.020;11.720;2024-03-23T02:29:59;8.70;99.90
7648;DHT22;3866;48.020;11.720;2024-03-23T02:32:24;8.80;99.90
7648;DHT22;3866;48.020;11.720;2024-03-23T02:34:51;8.70;99.90
7648;DHT22;3866;48.020;11.720;2024-03-23T02:37:17;8.80;99.90
7648;DHT22;3866;48.020;11.720;2024-03-23T02:39:44;8.70;99.90
7648;DHT22;3866;48.020;11.720;2024-03-23T02:42:11;8.60;99.90
7648;DHT22;3866;48.020;11.720;2024-03-23T02:44:38;8.60;99.90
7648;DHT22;3866;48.020;11.720;2024-03-23T02:47:05;8.70;99.90
7648;DHT22;3866;48.020;11.720;2024-03-23T02:49:32;8.70;99.90
7648;DHT22;3866;48.020;11.720;2024-03-23T02:51:57;8.60;99.90
7648;DHT22;3866;48.020;11.720;2024-03-23T02:54:24;8.70;99.90
7648;DHT22;3866;48.020;11.720;2024-03-23T02:56:50;8.70;99.90
7648;DHT22;3866;48.020;11.720;2024-03-23T02:59:18;8.80;99.90
7648;DHT22;3866;48.020;11.720;2024-03-23T03:01:44;8.80;99.90
7648;DHT22;3866;48.020;11.720;2024-03-23T03:04:11;8.90;99.90
7648;DHT22;3866;48.020;11.720;2024-03-23T03:06:37;8.90;99.90
7648;DHT22;3866;48.020;11.720;2024-03-23T03:09:04;8.90;99.90
7648;DHT22;3866;48.020;11.720;2024-03-23T03:11:30;8.90;99.90
7648;DHT22;3866;48.020;11.720;2024-03-23T03:13:57;8.90;99.90
7648;DHT22;3866;48.020;11.720;2024-03-23T03:16:27;8.90;99.90
7648;DHT22;3866;48.020;11.720;2024-03-23T03:18:53;8.90;99.90
7648;DHT22;3866;48.020;11.720;2024-03-23T03:21:19;8.80;99.90
7648;DHT22;3866;48.020;11.720;2024-03-23T03:23:47;8.80;99.90
7648;DHT22;3866;48.020;11.720;2024-03-23T03:26:15;8.80;99.90
7648;DHT22;3866;48.020;11.720;2024-03-23T03:28:42;8.90;99.90
7648;DHT22;3866;48.020;11.720;2024-03-23T03:31:09;8.90;99.90
7648;DHT22;3866;48.020;11.720;2024-03-23T03:33:40;8.90;99.90
7648;DHT22;3866;48.020;11.720;2024-03-23T03:36:06;9.00;99.90
7648;DHT22;3866;48.020;11.720;2024-03-23T03:38:33;9.00;99.90
7648;DHT22;3866;48.020;11.720;2024-03-23T03:41:00;9.00;99.90
7648;DHT22;3866;48.020;11.720;2024-03-23T03:43:28;9.00;99.90
7648;DHT22;3866;48.020;11.720;2024-03-23T03:45:54;9.00;99.90
7648;DHT22;3866;48.020;11.720;2024-03-23T03:48:21;9.00;99.90
7648;DHT22;3866;48.020;11.720;2024-03-23T03:50:48;9.10;99.90
7648;DHT22;3866;48.020;11.720;2024-03-23T03:53:15;9.00;99.90
7648;DHT22;3866;48.020;11.720;2024-03-23T03:55:41;9.00;99.90
7648;DHT22;3866;48.020;11.720;2024-03-23T03:58:08;9.00;99.90
7648;DHT22;3866;48.020;11.720;2024-03-23T04:00:34;9.00;99.90
7648;DHT22;3866;48.020;11.720;2024-03-23T04:03:01;8.90;99.90
7648;DHT22;3866;48.020;11.720;2024-03-23T04:05:27;8.90;99.90
7648;DHT22;3866;48.020;11.720;2024-03-23T04:07:55;8.80;99.90
7648;DHT22;3866;48.020;11.720;2024-03-23T04:10:21;8.70;99.90
7648;DHT22;3866;48.020;11.720;2024-03-23T04:12:48;8.80;99.90
7648;DHT22;3866;48.020;11.720;2024-03-23T04:15:14;8.70;99.90
7648;DHT22;3866;48.020;11.720;2024-03-23T04:17:41;8.80;99.90
7648;DHT22;3866;48.020;11.720;2024-03-23T04:20:09;8.80;99.90
7648;DHT22;3866;48.020;11.720;2024-03-23T04:22:36;8.80;99.90
7648;DHT22;3866;48.020;11.720;2024-03-23T04:25:05;8.80;99.90
7648;DHT22;3866;48.020;11.720;2024-03-23T04:27:32;8.80;99.90
7648;DHT22;3866;48.020;11.720;2024-03-23T04:29:58;8.90;99.90
7648;DHT22;3866;48.020;11.720;2024-03-23T04:32:26;9.00;99.90
7648;DHT22;3866;48.020;11.720;2024-03-23T04:34:53;9.10;99.90
7648;DHT22;3866;48.020;11.720;2024-03-23T04:37:20;9.00;99.90
7648;DHT22;3866;48.020;11.720;2024-03-23T04:39:46;9.00;99.90
7648;DHT22;3866;48.020;11.720;2024-03-23T04:42:16;8.90;99.90
7648;DHT22;3866;48.020;11.720;2024-03-23T04:44:43;9.00;99.90
7648;DHT22;3866;48.020;11.720;2024-03-23T04:47:10;9.00;99.90
7648;DHT22;3866;48.020;11.720;2024-03-23T04:49:37;8.90;99.90
7648;DHT22;3866;48.020;11.720;2024-03-23T04:52:07;8.90;99.90
7648;DHT22;3866;48.020;11.720;2024-03-23T04:54:37;8.90;99.90
7648;DHT22;3866;48.020;11.720;2024-03-23T04:57:05;8.80;99.90
7648;DHT22;3866;48.020;11.720;2024-03-23T04:59:33;8.80;99.90
7648;DHT22;3866;48.020;11.720;2024-03-23T05:02:00;8.60;99.90
7648;DHT22;3866;48.020;11.720;2024-03-23T05:04:28;8.60;99.90
7648;DHT22;3866;48.020;11.720;2024-03-23T05:06:54;8.50;99.90
7648;DHT22;3866;48.020;11.720;2024-03-23T05:09:20;8.40;99.90
7648;DHT22;3866;48.020;11.720;2024-03-23T05:11:47;8.30;99.90
7648;DHT22;3866;48.020;11.720;2024-03-23T05:14:13;8.20;99.90
7648;DHT22;3866;48.020;11.720;2024-03-23T05:16:41;8.30;99.90
7648;DHT22;3866;48.020;11.720;2024-03-23T05:19:08;8.40;99.90
7648;DHT22;3866;48.020;11.720;2024-03-23T05:21:34;8.40;99.90
7648;DHT22;3866;48.020;11.720;2024-03-23T05:24:00;8.40;99.90
7648;DHT22;3866;48.020;11.720;2024-03-23T05:26:26;8.30;99.90
7648;DHT22;3866;48.020;11.720;2024-03-23T05:28:54;8.50;99.90
7648;DHT22;3866;48.020;11.720;2024-03-23T05:31:23;8.60;99.90
7648;DHT22;3866;48.020;11.720;2024-03-23T05:33:52;8.70;99.90
7648;DHT22;3866;48.020;11.720;2024-03-23T05:36:18;8.80;99.90
7648;DHT22;3866;48.020;11.720;2024-03-23T05:38:45;8.90;99.90
7648;DHT22;3866;48.020;11.720;2024-03-23T05:41:11;9.10;99.90
7648;DHT22;3866;48.020;11.720;2024-03-23T05:43:38;9.30;99.90
7648;DHT22;3866;48.020;11.720;2024-03-23T05:46:04;9.20;99.90
7648;DHT22;3866;48.020;11.720;2024-03-23T05:48:31;9.20;99.90
7648;DHT22;3866;48.020;11.720;2024-03-23T05:50:59;9.30;99.90
7648;DHT22;3866;48.020;11.720;2024-03-23T05:53:26;9.30;99.90
7648;DHT22;3866;48.020;11.720;2024-03-23T05:56:00;9.30;99.90
7648;DHT22;3866;48.020;11.720;2024-03-23T05:58:29;9.40;99.90
7648;DHT22;3866;48.020;11.720;2024-03-23T06:00:57;9.40;99.90
7648;DHT22;3866;48.020;11.720;2024-03-23T06:03:24;9.60;99.90
7648;DHT22;3866;48.020;11.720;2024-03-23T06:05:50;9.80;99.90
7648;DHT22;3866;48.020;11.720;2024-03-23T06:08:19;10.00;99.90
7648;DHT22;3866;48.020;11.720;2024-03-23T06:10:45;10.40;99.90
7648;DHT22;3866;48.020;11.720;2024-03-23T06:13:12;10.50;99.90
7648;DHT22;3866;48.020;11.720;2024-03-23T06:15:38;10.60;99.90
7648;DHT22;3866;48.020;11.720;2024-03-23T06:18:05;10.80;99.90
7648;DHT22;3866;48.020;11.720;2024-03-23T06:20:33;11.00;99.90
7648;DHT22;3866;48.020;11.720;2024-03-23T06:23:00;11.20;99.90
7648;DHT22;3866;48.020;11.720;2024-03-23T06:25:28;11.70;99.90
7648;DHT22;3866;48.020;11.720;2024-03-23T06:27:55;11.90;99.90
7648;DHT22;3866;48.020;11.720;2024-03-23T06:30:21;12.10;99.90
7648;DHT22;3866;48.020;11.720;2024-03-23T06:32:47;12.30;99.90
7648;DHT22;3866;48.020;11.720;2024-03-23T06:35:13;12.90;99.90
7648;DHT22;3866;48.020;11.720;2024-03-23T06:37:40;13.10;99.90
7648;DHT22;3866;48.020;11.720;2024-03-23T06:40:07;13.10;99.90
7648;DHT22;3866;48.020;11.720;2024-03-23T06:42:37;13.80;99.90
7648;DHT22;3866;48.020;11.720;2024-03-23T06:45:03;15.40;99.90
7648;DHT22;3866;48.020;11.720;2024-03-23T06:47:30;15.40;99.90
7648;DHT22;3866;48.020;11.720;2024-03-23T06:49:56;15.50;99.90
7648;DHT22;3866;48.020;11.720;2024-03-23T06:52:23;15.60;99.90
7648;DHT22;3866;48.020;11.720;2024-03-23T06:54:51;16.00;99.90
7648;DHT22;3866;48.020;11.720;2024-03-23T06:57:18;19.10;99.90
7648;DHT22;3866;48.020;11.720;2024-03-23T06:59:46;20.70;99.90
7648;DHT22;3866;48.020;11.720;2024-03-23T07:02:13;19.00;99.90
7648;DHT22;3866;48.020;11.720;2024-03-23T07:04:39;18.10;99.90
7648;DHT22;3866;48.020;11.720;2024-03-23T07:07:05;18.00;99.90
7648;DHT22;3866;48.020;11.720;2024-03-23T07:09:32;16.90;99.90
7648;DHT22;3866;48.020;11.720;2024-03-23T07:11:58;16.50;99.90
7648;DHT22;3866;48.020;11.720;2024-03-23T07:14:25;16.60;99.90
7648;DHT22;3866;48.020;11.720;2024-03-23T07:16:53;17.90;99.90
7648;DHT22;3866;48.020;11.720;2024-03-23T07:19:19;16.40;99.90
7648;DHT22;3866;48.020;11.720;2024-03-23T07:21:49;16.50;99.90
7648;DHT22;3866;48.020;11.720;2024-03-23T07:24:15;16.20;99.90
7648;DHT22;3866;48.020;11.720;2024-03-23T07:26:42;16.30;99.90
7648;DHT22;3866;48.020;11.720;2024-03-23T07:29:07;16.60;99.90
7648;DHT22;3866;48.020;11.720;2024-03-23T07:31:34;16.80;99.90
7648;DHT22;3866;48.020;11.720;2024-03-23T07:34:02;17.10;99.90
7648;DHT22;3866;48.020;11.720;2024-03-23T07:36:28;17.00;99.90
7648;DHT22;3866;48.020;11.720;2024-03-23T07:38:54;16.80;99.90
7648;DHT22;3866;48.020;11.720;2024-03-23T07:41:21;16.20;99.90
7648;DHT22;3866;48.020;11.720;2024-03-23T07:43:48;15.50;99.90
7648;DHT22;3866;48.020;11.720;2024-03-23T07:46:16;15.10;99.90
7648;DHT22;3866;48.020;11.720;2024-03-23T07:48:42;14.90;99.90
7648;DHT22;3866;48.020;11.720;2024-03-23T07:51:15;14.70;99.90
7648;DHT22;3866;48.020;11.720;2024-03-23T07:53:43;14.30;99.90
7648;DHT22;3866;48.020;11.720;2024-03-23T07:56:10;14.30;99.90
7648;DHT22;3866;48.020;11.720;2024-03-23T07:58:37;14.40;99.90
7648;DHT22;3866;48.020;11.720;2024-03-23T08:01:04;14.30;99.90
7648;DHT22;3866;48.020;11.720;2024-03-23T08:03:30;14.20;99.90
7648;DHT22;3866;48.020;11.720;2024-03-23T08:05:57;14.50;99.90
7648;DHT22;3866;48.020;11.720;2024-03-23T08:08:25;14.70;99.90
7648;DHT22;3866;48.020;11.720;2024-03-23T08:10:52;14.40;99.90
7648;DHT22;3866;48.020;11.720;2024-03-23T08:13:19;14.50;99.90
7648;DHT22;3866;48.020;11.720;2024-03-23T08:15:46;13.60;99.90
7648;DHT22;3866;48.020;11.720;2024-03-23T08:18:12;13.30;99.90
7648;DHT22;3866;48.020;11.720;2024-03-23T08:20:41;13.00;99.90
7648;DHT22;3866;48.020;11.720;2024-03-23T08:23:07;12.70;99.90
7648;DHT22;3866;48.020;11.720;2024-03-23T08:25:35;12.50;99.90
7648;DHT22;3866;48.020;11.720;2024-03-23T08:28:01;12.10;99.90
7648;DHT22;3866;48.020;11.720;2024-03-23T08:30:28;11.90;99.90
7648;DHT22;3866;48.020;11.720;2024-03-23T08:32:55;11.80;99.90
7648;DHT22;3866;48.020;11.720;2024-03-23T08:35:21;11.70;99.90
7648;DHT22;3866;48.020;11.720;2024-03-23T08:37:47;11.50;99.90
7648;DHT22;3866;48.020;11.720;2024-03-23T08:40:14;11.30;99.90
7648;DHT22;3866;48.020;11.720;2024-03-23T08:42:41;11.00;99.90
7648;DHT22;3866;48.020;11.720;2024-03-23T08:45:08;10.90;99.90
7648;DHT22;3866;48.020;11.720;2024-03-23T08:47:35;10.80;99.90
7648;DHT22;3866;48.020;11.720;2024-03-23T08:50:02;10.70;99.90
7648;DHT22;3866;48.020;11.720;2024-03-23T08:52:28;10.50;99.90
7648;DHT22;3866;48.020;11.720;2024-03-23T08:54:55;10.40;99.90
7648;DHT22;3866;48.020;11.720;2024-03-23T08:57:21;10.40;99.90
7648;DHT22;3866;48.020;11.720;2024-03-23T08:59:50;10.30;99.90
7648;DHT22;3866;48.020;11.720;2024-03-23T09:02:15;10.30;99.90
7648;DHT22;3866;48.020;11.720;2024-03-23T09:04:43;9.90;99.90
7648;DHT22;3866;48.020;11.720;2024-03-23T09:07:09;9.60;99.90
7648;DHT22;3866;48.020;11.720;2024-03-23T09:09:38;9.30;99.90
7648;DHT22;3866;48.020;11.720;2024-03-23T09:12:04;9.10;99.90
7648;DHT22;3866;48.020;11.720;2024-03-23T09:14:31;8.90;99.90
7648;DHT22;3866;48.020;11.720;2024-03-23T09:16:59;8.80;99.90
7648;DHT22;3866;48.020;11.720;2024-03-23T09:19:27;8.70;99.90
7648;DHT22;3866;48.020;11.720;2024-03-23T09:21:53;8.60;99.90
7648;DHT22;3866;48.020;11.720;2024-03-23T09:24:20;8.30;99.90
7648;DHT22;3866;48.020;11.720;2024-03-23T09:26:46;8.30;99.90
7648;DHT22;3866;48.020;11.720;2024-03-23T09:29:13;8.40;99.90
7648;DHT22;3866;48.020;11.720;2024-03-23T09:31:40;8.40;99.90
7648;DHT22;3866;48.020;11.720;2024-03-23T09:34:08;8.30;99.90
7648;DHT22;3866;48.020;11.720;2024-03-23T09:36:34;8.40;99.90
7648;DHT22;3866;48.020;11.720;2024-03-23T09:39:01;8.30;99.90
7648;DHT22;3866;48.020;11.720;2024-03-23T09:41:26;8.20;99.90
7648;DHT22;3866;48.020;11.720;2024-03-23T09:43:53;8.10;99.90
7648;DHT22;3866;48.020;11.720;2024-03-23T09:46:19;8.20;99.90
7648;DHT22;3866;48.020;11.720;2024-03-23T09:48:47;8.20;99.90
7648;DHT22;3866;48.020;11.720;2024-03-23T09:51:14;8.20;99.90
7648;DHT22;3866;48.020;11.720;2024-03-23T09:53:41;8.00;99.90
7648;DHT22;3866;48.020;11.720;2024-03-23T09:56:07;8.00;99.90
7648;DHT22;3866;48.020;11.720;2024-03-23T09:58:35;7.90;99.90
7648;DHT22;3866;48.020;11.720;2024-03-23T10:01:01;7.50;99.90
7648;DHT22;3866;48.020;11.720;2024-03-23T10:03:29;7.40;99.90
7648;DHT22;3866;48.020;11.720;2024-03-23T10:06:01;7.30;99.90
7648;DHT22;3866;48.020;11.720;2024-03-23T10:08:30;7.20;99.90
7648;DHT22;3866;48.020;11.720;2024-03-23T10:10:56;7.10;99.90
7648;DHT22;3866;48.020;11.720;2024-03-23T10:13:24;7.10;99.90
7648;DHT22;3866;48.020;11.720;2024-03-23T10:15:55;7.10;99.90
7648;DHT22;3866;48.020;11.720;2024-03-23T10:18:23;7.00;99.90
7648;DHT22;3866;48.020;11.720;2024-03-23T10:20:52;6.90;99.90
7648;DHT22;3866;48.020;11.720;2024-03-23T10:23:27;6.90;99.90
7648;DHT22;3866;48.020;11.720;2024-03-23T10:25:54;6.90;99.90
7648;DHT22;3866;48.020;11.720;2024-03-23T10:28:21;6.90;99.90
7648;DHT22;3866;48.020;11.720;2024-03-23T10:30:46;6.80;99.90
7648;DHT22;3866;48.020;11.720;2024-03-23T10:33:13;6.70;99.90
7648;DHT22;3866;48.020;11.720;2024-03-23T10:35:40;6.70;99.90
7648;DHT22;3866;48.020;11.720;2024-03-23T10:38:08;6.70;99.90
7648;DHT22;3866;48.020;11.720;2024-03-23T10:40:34;6.70;99.90
7648;DHT22;3866;48.020;11.720;2024-03-23T10:43:03;6.60;99.90
7648;DHT22;3866;48.020;11.720;2024-03-23T10:45:29;6.60;99.90
7648;DHT22;3866;48.020;11.720;2024-03-23T10:47:56;6.60;99.90
7648;DHT22;3866;48.020;11.720;2024-03-23T10:50:22;6.60;99.90
7648;DHT22;3866;48.020;11.720;2024-03-23T10:52:49;6.60;99.90
7648;DHT22;3866;48.020;11.720;2024-03-23T10:55:19;6.60;99.90
7648;DHT22;3866;48.020;11.720;2024-03-23T10:57:50;6.50;99.90
7648;DHT22;3866;48.020;11.720;2024-03-23T11:00:18;6.50;99.90
7648;DHT22;3866;48.020;11.720;2024-03-23T11:02:47;6.50;99.90
7648;DHT22;3866;48.020;11.720;2024-03-23T11:05:29;6.40;99.90
7648;DHT22;3866;48.020;11.720;2024-03-23T11:07:57;6.30;99.90
7648;DHT22;3866;48.020;11.720;2024-03-23T11:10:26;6.50;99.90
7648;DHT22;3866;48.020;11.720;2024-03-23T11:12:54;6.50;99.90
7648;DHT22;3866;48.020;11.720;2024-03-23T11:15:22;6.50;99.90
7648;DHT22;3866;48.020;11.720;2024-03-23T11:18:07;6.60;99.90
7648;DHT22;3866;48.020;11.720;2024-03-23T11:20:34;6.60;99.90
7648;DHT22;3866;48.020;11.720;2024-03-23T11:23:02;6.70;99.90
7648;DHT22;3866;48.020;11.720;2024-03-23T11:25:29;6.70;99.90
7648;DHT22;3866;48.020;11.720;2024-03-23T11:27:57;6.60;99.90
7648;DHT22;3866;48.020;11.720;2024-03-23T11:30:26;6.60;99.90
7648;DHT22;3866;48.020;11.720;2024-03-23T11:32:54;6.80;99.90
7648;DHT22;3866;48.020;11.720;2024-03-23T11:35:26;6.80;99.90
7648;DHT22;3866;48.020;11.720;2024-03-23T11:38:05;6.90;99.90
7648;DHT22;3866;48.020;11.720;2024-03-23T11:40:33;7.00;99.90
7648;DHT22;3866;48.020;11.720;2024-03-23T11:43:00;7.10;99.90
7648;DHT22;3866;48.020;11.720;2024-03-23T11:45:34;7.00;99.90
7648;DHT22;3866;48.020;11.720;2024-03-23T11:48:08;6.90;99.90
7648;DHT22;3866;48.020;11.720;2024-03-23T11:50:37;7.00;99.90
7648;DHT22;3866;48.020;11.720;2024-03-23T11:53:13;6.90;99.90
7648;DHT22;3866;48.020;11.720;2024-03-23T11:55:42;6.80;99.90
7648;DHT22;3866;48.020;11.720;2024-03-23T11:58:08;6.80;99.90
7648;DHT22;3866;48.020;11.720;2024-03-23T12:00:36;6.80;99.90
7648;DHT22;3866;48.020;11.720;2024-03-23T12:03:03;6.80;99.90
7648;DHT22;3866;48.020;11.720;2024-03-23T12:05:30;6.70;99.90
7648;DHT22;3866;48.020;11.720;2024-03-23T12:08:15;6.70;99.90
7648;DHT22;3866;48.020;11.720;2024-03-23T12:10:44;6.70;99.90
7648;DHT22;3866;48.020;11.720;2024-03-23T12:13:11;6.70;99.90
7648;DHT22;3866;48.020;11.720;2024-03-23T12:15:39;6.70;99.90
7648;DHT22;3866;48.020;11.720;2024-03-23T12:18:08;6.80;99.90
7648;DHT22;3866;48.020;11.720;2024-03-23T12:20:36;6.80;99.90
7648;DHT22;3866;48.020;11.720;2024-03-23T12:23:07;6.90;99.90
7648;DHT22;3866;48.020;11.720;2024-03-23T12:25:35;7.00;99.90
7648;DHT22;3866;48.020;11.720;2024-03-23T12:28:01;6.90;99.90
7648;DHT22;3866;48.020;11.720;2024-03-23T12:30:28;6.90;99.90
7648;DHT22;3866;48.020;11.720;2024-03-23T12:32:55;7.00;99.90
7648;DHT22;3866;48.020;11.720;2024-03-23T12:35:22;7.10;99.90
7648;DHT22;3866;48.020;11.720;2024-03-23T12:37:48;7.10;99.90
7648;DHT22;3866;48.020;11.720;2024-03-23T12:40:15;7.10;99.90
7648;DHT22;3866;48.020;11.720;2024-03-23T12:42:41;7.30;99.90
7648;DHT22;3866;48.020;11.720;2024-03-23T12:45:08;7.30;99.90
7648;DHT22;3866;48.020;11.720;2024-03-23T12:47:34;7.50;99.90
7648;DHT22;3866;48.020;11.720;2024-03-23T12:50:03;7.40;99.90
7648;DHT22;3866;48.020;11.720;2024-03-23T12:52:29;7.50;99.90
7648;DHT22;3866;48.020;11.720;2024-03-23T12:54:56;7.60;99.90
7648;DHT22;3866;48.020;11.720;2024-03-23T12:57:23;7.60;99.90
7648;DHT22;3866;48.020;11.720;2024-03-23T12:59:50;7.70;99.90
7648;DHT22;3866;48.020;11.720;2024-03-23T13:02:18;7.70;99.90
7648;DHT22;3866;48.020;11.720;2024-03-23T13:04:46;7.80;99.90
7648;DHT22;3866;48.020;11.720;2024-03-23T13:07:14;8.00;99.90
7648;DHT22;3866;48.020;11.720;2024-03-23T13:09:41;8.10;99.90
7648;DHT22;3866;48.020;11.720;2024-03-23T13:12:07;8.10;99.90
7648;DHT22;3866;48.020;11.720;2024-03-23T13:14:34;8.10;99.90
7648;DHT22;3866;48.020;11.720;2024-03-23T13:17:00;7.90;99.90
7648;DHT22;3866;48.020;11.720;2024-03-23T13:19:27;7.90;99.90
7648;DHT22;3866;48.020;11.720;2024-03-23T13:21:56;7.80;99.90
7648;DHT22;3866;48.020;11.720;2024-03-23T13:24:24;7.80;99.90
7648;DHT22;3866;48.020;11.720;2024-03-23T13:26:50;7.80;99.90
7648;DHT22;3866;48.020;11.720;2024-03-23T13:29:34;7.80;99.90
7648;DHT22;3866;48.020;11.720;2024-03-23T13:32:13;7.80;99.90
7648;DHT22;3866;48.020;11.720;2024-03-23T13:34:40;7.70;99.90
7648;DHT22;3866;48.020;11.720;2024-03-23T13:37:06;7.70;99.90
7648;DHT22;3866;48.020;11.720;2024-03-23T13:39:36;7.70;99.90
7648;DHT22;3866;48.020;11.720;2024-03-23T13:42:02;7.60;99.90
7648;DHT22;3866;48.020;11.720;2024-03-23T13:44:30;7.50;99.90
7648;DHT22;3866;48.020;11.720;2024-03-23T13:46:56;7.50;99.90
7648;DHT22;3866;48.020;11.720;2024-03-23T13:49:27;7.50;99.90
7648;DHT22;3866;48.020;11.720;2024-03-23T13:51:53;7.50;99.90
7648;DHT22;3866;48.020;11.720;2024-03-23T13:54:21;7.50;99.90
7648;DHT22;3866;48.020;11.720;2024-03-23T13:56:49;7.40;99.90
7648;DHT22;3866;48.020;11.720;2024-03-23T13:59:16;7.10;99.90
7648;DHT22;3866;48.020;11.720;2024-03-23T14:01:42;7.10;99.90
7648;DHT22;3866;48.020;11.720;2024-03-23T14:04:10;7.00;99.90
7648;DHT22;3866;48.020;11.720;2024-03-23T14:06:36;6.90;99.90
7648;DHT22;3866;48.020;11.720;2024-03-23T14:09:03;6.80;99.90
7648;DHT22;3866;48.020;11.720;2024-03-23T14:11:29;6.80;99.90
7648;DHT22;3866;48.020;11.720;2024-03-23T14:13:58;6.70;99.90
7648;DHT22;3866;48.020;11.720;2024-03-23T14:16:23;6.60;99.90
7648;DHT22;3866;48.020;11.720;2024-03-23T14:18:50;6.40;99.90
7648;DHT22;3866;48.020;11.720;2024-03-23T14:21:23;6.30;99.90
7648;DHT22;3866;48.020;11.720;2024-03-23T14:23:50;6.30;99.90
7648;DHT22;3866;48.020;11.720;2024-03-23T14:26:16;6.20;99.90
7648;DHT22;3866;48.020;11.720;2024-03-23T14:28:43;6.20;99.90
7648;DHT22;3866;48.020;11.720;2024-03-23T14:31:10;6.20;99.90
7648;DHT22;3866;48.020;11.720;2024-03-23T14:33:37;5.50;99.90
7648;DHT22;3866;48.020;11.720;2024-03-23T14:36:04;4.70;99.90
7648;DHT22;3866;48.020;11.720;2024-03-23T14:38:31;4.50;99.90
7648;DHT22;3866;48.020;11.720;2024-03-23T14:40:58;4.30;99.90
7648;DHT22;3866;48.020;11.720;2024-03-23T14:43:25;4.10;99.90
7648;DHT22;3866;48.020;11.720;2024-03-23T14:46:07;3.90;99.90
7648;DHT22;3866;48.020;11.720;2024-03-23T14:48:36;3.70;99.90
7648;DHT22;3866;48.020;11.720;2024-03-23T14:51:02;3.70;99.90
7648;DHT22;3866;48.020;11.720;2024-03-23T14:53:31;3.60;99.90
7648;DHT22;3866;48.020;11.720;2024-03-23T14:55:57;3.60;99.90
7648;DHT22;3866;48.020;11.720;2024-03-23T14:58:25;3.60;99.90
7648;DHT22;3866;48.020;11.720;2024-03-23T15:00:51;3.60;99.90
7648;DHT22;3866;48.020;11.720;2024-03-23T15:03:18;3.60;99.90
7648;DHT22;3866;48.020;11.720;2024-03-23T15:05:53;3.70;99.90
7648;DHT22;3866;48.020;11.720;2024-03-23T15:08:21;3.70;99.90
7648;DHT22;3866;48.020;11.720;2024-03-23T15:10:47;3.70;99.90
7648;DHT22;3866;48.020;11.720;2024-03-23T15:13:13;3.70;99.90
7648;DHT22;3866;48.020;11.720;2024-03-23T15:15:40;3.70;99.90
7648;DHT22;3866;48.020;11.720;2024-03-23T15:18:09;3.70;99.90
7648;DHT22;3866;48.020;11.720;2024-03-23T15:20:35;3.60;99.90
7648;DHT22;3866;48.020;11.720;2024-03-23T15:23:04;3.60;99.90
7648;DHT22;3866;48.020;11.720;2024-03-23T15:25:29;3.60;99.90
7648;DHT22;3866;48.020;11.720;2024-03-23T15:27:57;3.60;99.90
7648;DHT22;3866;48.020;11.720;2024-03-23T15:30:24;3.60;99.90
7648;DHT22;3866;48.020;11.720;2024-03-23T15:32:51;3.80;99.90
7648;DHT22;3866;48.020;11.720;2024-03-23T15:35:18;3.80;99.90
7648;DHT22;3866;48.020;11.720;2024-03-23T15:37:44;3.70;99.90
7648;DHT22;3866;48.020;11.720;2024-03-23T15:40:12;3.80;99.90
7648;DHT22;3866;48.020;11.720;2024-03-23T15:42:39;3.70;99.90
7648;DHT22;3866;48.020;11.720;2024-03-23T15:45:06;3.60;99.90
7648;DHT22;3866;48.020;11.720;2024-03-23T15:47:35;3.70;99.90
7648;DHT22;3866;48.020;11.720;2024-03-23T15:50:01;3.60;99.90
7648;DHT22;3866;48.020;11.720;2024-03-23T15:52:33;3.50;99.90
7648;DHT22;3866;48.020;11.720;2024-03-23T15:55:00;3.50;99.90
7648;DHT22;3866;48.020;11.720;2024-03-23T15:57:28;3.50;99.90
7648;DHT22;3866;48.020;11.720;2024-03-23T15:59:54;3.60;99.90
7648;DHT22;3866;48.020;11.720;2024-03-23T16:02:20;3.60;99.90
7648;DHT22;3866;48.020;11.720;2024-03-23T16:04:46;3.60;99.90
7648;DHT22;3866;48.020;11.720;2024-03-23T16:07:13;3.70;99.90
7648;DHT22;3866;48.020;11.720;2024-03-23T16:09:39;3.80;99.90
7648;DHT22;3866;48.020;11.720;2024-03-23T16:12:06;3.90;99.90
7648;DHT22;3866;48.020;11.720;2024-03-23T16:14:33;4.00;99.90
7648;DHT22;3866;48.020;11.720;2024-03-23T16:17:00;4.10;99.90
7648;DHT22;3866;48.020;11.720;2024-03-23T16:19:26;4.00;99.90
7648;DHT22;3866;48.020;11.720;2024-03-23T16:21:53;4.00;99.90
7648;DHT22;3866;48.020;11.720;2024-03-23T16:24:19;4.00;99.90
7648;DHT22;3866;48.020;11.720;2024-03-23T16:26:46;4.10;99.90
7648;DHT22;3866;48.020;11.720;2024-03-23T16:29:12;4.10;99.90
7648;DHT22;3866;48.020;11.720;2024-03-23T16:31:41;4.10;99.90
7648;DHT22;3866;48.020;11.720;2024-03-23T16:34:07;4.10;99.90
7648;DHT22;3866;48.020;11.720;2024-03-23T16:36:34;4.10;99.90
7648;DHT22;3866;48.020;11.720;2024-03-23T16:39:00;4.10;99.90
7648;DHT22;3866;48.020;11.720;2024-03-23T16:41:27;4.10;99.90
7648;DHT22;3866;48.020;11.720;2024-03-23T16:43:53;4.10;99.90
7648;DHT22;3866;48.020;11.720;2024-03-23T16:46:19;4.10;99.90
7648;DHT22;3866;48.020;11.720;2024-03-23T16:48:47;4.20;99.90
7648;DHT22;3866;48.020;11.720;2024-03-23T16:51:13;4.30;99.90
7648;DHT22;3866;48.020;11.720;2024-03-23T16:53:39;4.30;99.90